Terminal Aerodrome Forecast
Issued by NWS

Home | Current Version | Previous Version | Text Only | Print | Product List | Glossary On
Versions: 1 2 3 4 5 6 7 8 9 10 11 12 13
000
FTUS41 KBTV 172300
TAFMSS
TAF
KMSS 172321Z 1800/1824 25007KT P6SM VCSH OVC050
     FM180800 36006KT P6SM OVC040
      TEMPO 1810/1814 BKN025
     FM181800 35009KT P6SM SCT050=

USA.gov is the U.S. government's official web portal to all federal, state and local government web resources and services.